Cut Bank, MT (59427)

2:06 PM MDT on July 27, 2016 (GMT -0600)
CG Ag Consulting | | Change Station

Elev 3789 ft 48.70 °N, 112.32 °W | Updated 11 seconds ago

Partly Cloudy
Partly Cloudy
75.8 °F
Feels Like 78 °F
N
7.5
Wind Variable Wind from East
Gusts 8.0 mph

Today
High -- | Low -- °F
--% Chance of Precip.
Yesterday
High -- | Low -- °F
Precip. -- in
Pressure 30.12 in
Visibility 10.0 miles
Clouds Few 5000 ft
Heat Index 78 °F
Dew Point 59 °F
Humidity 56%
Rainfall 0.00 in
Snow Depth Not available.
5:57 AM 9:13 PM
Last Quarter, 40% visible
METAR KCTB 271956Z AUTO 00000KT 10SM FEW050 26/11 A3019 RMK AO2 SLP198 T02560106 $
Pressure 30.12 in
Visibility 10.0 miles
Clouds Few 5000 ft
Heat Index 78 °F
Dew Point 59 °F
Humidity 56%
Rainfall 0.00 in
Snow Depth Not available.
5:57 AM 9:13 PM
Last Quarter, 40% visible
METAR KCTB 271956Z AUTO 00000KT 10SM FEW050 26/11 A3019 RMK AO2 SLP198 T02560106 $

10-Day Weather Forecast

Almanac

Astronomy

Jul. 27, 2016 Rise Set
Actual Time
Civil Twilight
Nautical Twilight
Astronomical Twilight
Moon
Length of Visible Light
Length of Day
Tomorrow will be .
, % of the Moon is Illuminated

Today's Extremes

State Highs State Lows

Community

WunderPhotos

Upload Photos

1,927,931 photos uploaded!

WunderBlog® & News

Nearby

Air Quality

  Air Quality AQ Index Pollutant
Not available.

Snow Depth

Station Depth Elevation

Earthquake Activity

City Distance Mag. Time & Date
Minimum magnitude displayed is 2.5.

Coastal Water Temperatures

Place Temperature

Stations

Nearby Weather Stations

Station Location Temp. Windchill Dew Point Humidity Wind Precip. Elev Updated Type
                   

Watches & Warnings

There are currently no watches in effect.